sensor_id;sensor_type;location;lat;lon;timestamp;pressure;altitude;pressure_sealevel;temperature;humidity
10658;BME280;5377;43.276;26.930;2023-03-16T00:01:57;98056.59;;;7.91;100.00
10658;BME280;5377;43.276;26.930;2023-03-16T00:04:23;98058.84;;;7.88;100.00
10658;BME280;5377;43.276;26.930;2023-03-16T00:06:50;98068.75;;;7.74;100.00
10658;BME280;5377;43.276;26.930;2023-03-16T00:09:17;98059.88;;;7.87;100.00
10658;BME280;5377;43.276;26.930;2023-03-16T00:11:45;98064.22;;;7.81;100.00
10658;BME280;5377;43.276;26.930;2023-03-16T00:14:12;98059.28;;;7.85;100.00
10658;BME280;5377;43.276;26.930;2023-03-16T00:16:38;98056.44;;;7.79;100.00
10658;BME280;5377;43.276;26.930;2023-03-16T00:19:05;98054.66;;;7.67;100.00
10658;BME280;5377;43.276;26.930;2023-03-16T00:21:32;98050.75;;;7.63;100.00
10658;BME280;5377;43.276;26.930;2023-03-16T00:23:59;98052.19;;;7.65;100.00
10658;BME280;5377;43.276;26.930;2023-03-16T00:26:27;98056.69;;;7.58;100.00
10658;BME280;5377;43.276;26.930;2023-03-16T00:28:56;98055.28;;;7.56;100.00
10658;BME280;5377;43.276;26.930;2023-03-16T00:31:22;98048.28;;;7.61;100.00
10658;BME280;5377;43.276;26.930;2023-03-16T00:33:50;98049.53;;;7.65;100.00
10658;BME280;5377;43.276;26.930;2023-03-16T00:36:17;98061.19;;;7.71;100.00
10658;BME280;5377;43.276;26.930;2023-03-16T00:38:43;98064.28;;;7.68;100.00
10658;BME280;5377;43.276;26.930;2023-03-16T00:41:13;98061.81;;;7.73;100.00
10658;BME280;5377;43.276;26.930;2023-03-16T00:43:41;98063.63;;;7.79;100.00
10658;BME280;5377;43.276;26.930;2023-03-16T00:46:12;98049.91;;;7.75;100.00
10658;BME280;5377;43.276;26.930;2023-03-16T00:48:41;98052.34;;;7.77;100.00
10658;BME280;5377;43.276;26.930;2023-03-16T00:51:10;98052.38;;;7.70;100.00
10658;BME280;5377;43.276;26.930;2023-03-16T00:53:40;98059.38;;;7.65;100.00
10658;BME280;5377;43.276;26.930;2023-03-16T00:56:08;98056.28;;;7.68;100.00
10658;BME280;5377;43.276;26.930;2023-03-16T00:58:37;98050.34;;;7.66;100.00
10658;BME280;5377;43.276;26.930;2023-03-16T01:01:05;98051.38;;;7.58;100.00
10658;BME280;5377;43.276;26.930;2023-03-16T01:03:34;98049.94;;;7.56;100.00
10658;BME280;5377;43.276;26.930;2023-03-16T01:06:03;98050.81;;;7.43;100.00
10658;BME280;5377;43.276;26.930;2023-03-16T01:08:30;98047.94;;;7.44;100.00
10658;BME280;5377;43.276;26.930;2023-03-16T01:11:01;98056.78;;;7.38;100.00
10658;BME280;5377;43.276;26.930;2023-03-16T01:13:28;98052.47;;;7.24;100.00
10658;BME280;5377;43.276;26.930;2023-03-16T01:15:55;98058.22;;;7.21;100.00
10658;BME280;5377;43.276;26.930;2023-03-16T01:18:21;98057.00;;;7.24;100.00
10658;BME280;5377;43.276;26.930;2023-03-16T01:20:50;98045.94;;;7.20;100.00
10658;BME280;5377;43.276;26.930;2023-03-16T01:23:16;98053.31;;;7.18;100.00
10658;BME280;5377;43.276;26.930;2023-03-16T01:25:43;98069.28;;;7.25;100.00
10658;BME280;5377;43.276;26.930;2023-03-16T01:28:17;98030.81;;;6.87;100.00
10658;BME280;5377;43.276;26.930;2023-03-16T01:30:44;98069.50;;;7.23;100.00
10658;BME280;5377;43.276;26.930;2023-03-16T01:33:11;98068.88;;;7.34;100.00
10658;BME280;5377;43.276;26.930;2023-03-16T01:35:38;98067.88;;;7.29;100.00
10658;BME280;5377;43.276;26.930;2023-03-16T01:38:06;98065.59;;;7.39;100.00
10658;BME280;5377;43.276;26.930;2023-03-16T01:40:34;98067.03;;;7.35;100.00
10658;BME280;5377;43.276;26.930;2023-03-16T01:43:03;98067.25;;;7.33;100.00
10658;BME280;5377;43.276;26.930;2023-03-16T01:48:41;98081.97;;;7.42;100.00
10658;BME280;5377;43.276;26.930;2023-03-16T01:51:13;98082.34;;;7.53;100.00
10658;BME280;5377;43.276;26.930;2023-03-16T01:53:44;98043.69;;;7.30;100.00
10658;BME280;5377;43.276;26.930;2023-03-16T01:56:13;98092.81;;;7.47;100.00
10658;BME280;5377;43.276;26.930;2023-03-16T01:58:43;98098.56;;;7.44;100.00
10658;BME280;5377;43.276;26.930;2023-03-16T02:01:11;98095.50;;;7.41;100.00
10658;BME280;5377;43.276;26.930;2023-03-16T02:03:40;98105.91;;;7.49;100.00
10658;BME280;5377;43.276;26.930;2023-03-16T02:06:11;98103.91;;;7.38;100.00
10658;BME280;5377;43.276;26.930;2023-03-16T02:08:42;98099.78;;;7.42;100.00
10658;BME280;5377;43.276;26.930;2023-03-16T02:11:11;98116.19;;;7.39;100.00
10658;BME280;5377;43.276;26.930;2023-03-16T02:13:42;98114.31;;;7.53;100.00
10658;BME280;5377;43.276;26.930;2023-03-16T02:16:11;98114.34;;;7.39;100.00
10658;BME280;5377;43.276;26.930;2023-03-16T02:18:44;98119.69;;;7.39;100.00
10658;BME280;5377;43.276;26.930;2023-03-16T02:21:13;98122.13;;;7.47;100.00
10658;BME280;5377;43.276;26.930;2023-03-16T02:23:45;98127.88;;;7.38;100.00
10658;BME280;5377;43.276;26.930;2023-03-16T02:26:18;98121.31;;;7.40;100.00
10658;BME280;5377;43.276;26.930;2023-03-16T02:28:54;98118.44;;;7.35;100.00
10658;BME280;5377;43.276;26.930;2023-03-16T02:31:28;98124.59;;;7.36;100.00
10658;BME280;5377;43.276;26.930;2023-03-16T02:33:55;98128.06;;;7.23;100.00
10658;BME280;5377;43.276;26.930;2023-03-16T02:36:23;98129.13;;;7.29;100.00
10658;BME280;5377;43.276;26.930;2023-03-16T02:38:50;98129.53;;;7.32;100.00
10658;BME280;5377;43.276;26.930;2023-03-16T02:41:19;98134.00;;;7.45;100.00
10658;BME280;5377;43.276;26.930;2023-03-16T02:43:49;98128.25;;;7.48;100.00
10658;BME280;5377;43.276;26.930;2023-03-16T02:46:19;98133.78;;;7.66;100.00
10658;BME280;5377;43.276;26.930;2023-03-16T02:48:51;98139.28;;;7.71;100.00
10658;BME280;5377;43.276;26.930;2023-03-16T02:51:21;98141.34;;;7.63;100.00
10658;BME280;5377;43.276;26.930;2023-03-16T02:53:47;98138.53;;;7.38;100.00
10658;BME280;5377;43.276;26.930;2023-03-16T02:56:14;98136.69;;;7.38;100.00
10658;BME280;5377;43.276;26.930;2023-03-16T02:58:41;98140.97;;;7.39;100.00
10658;BME280;5377;43.276;26.930;2023-03-16T03:01:08;98153.47;;;7.39;100.00
10658;BME280;5377;43.276;26.930;2023-03-16T03:03:35;98152.03;;;7.23;100.00
10658;BME280;5377;43.276;26.930;2023-03-16T03:06:04;98164.75;;;7.14;100.00
10658;BME280;5377;43.276;26.930;2023-03-16T03:08:30;98163.94;;;6.94;100.00
10658;BME280;5377;43.276;26.930;2023-03-16T03:10:57;98165.75;;;6.94;100.00
10658;BME280;5377;43.276;26.930;2023-03-16T03:13:24;98173.16;;;7.05;100.00
10658;BME280;5377;43.276;26.930;2023-03-16T03:15:51;98169.66;;;7.04;100.00
10658;BME280;5377;43.276;26.930;2023-03-16T03:18:18;98173.97;;;6.99;100.00
10658;BME280;5377;43.276;26.930;2023-03-16T03:20:45;98180.31;;;7.11;100.00
10658;BME280;5377;43.276;26.930;2023-03-16T03:23:13;98176.22;;;7.02;100.00
10658;BME280;5377;43.276;26.930;2023-03-16T03:25:40;98185.03;;;7.02;100.00
10658;BME280;5377;43.276;26.930;2023-03-16T03:28:07;98187.88;;;7.07;100.00
10658;BME280;5377;43.276;26.930;2023-03-16T03:30:34;98188.50;;;7.16;100.00
10658;BME280;5377;43.276;26.930;2023-03-16T03:33:01;98188.72;;;7.21;100.00
10658;BME280;5377;43.276;26.930;2023-03-16T03:35:28;98192.63;;;7.32;100.00
10658;BME280;5377;43.276;26.930;2023-03-16T03:37:56;98195.91;;;7.34;100.00
10658;BME280;5377;43.276;26.930;2023-03-16T03:40:24;98177.22;;;7.54;100.00
10658;BME280;5377;43.276;26.930;2023-03-16T03:42:51;98181.13;;;7.58;100.00
10658;BME280;5377;43.276;26.930;2023-03-16T03:45:18;98184.41;;;7.46;100.00
10658;BME280;5377;43.276;26.930;2023-03-16T03:47:45;98189.31;;;7.49;100.00
10658;BME280;5377;43.276;26.930;2023-03-16T03:50:12;98185.63;;;7.57;100.00
10658;BME280;5377;43.276;26.930;2023-03-16T03:52:39;98190.38;;;7.42;100.00
10658;BME280;5377;43.276;26.930;2023-03-16T03:55:07;98194.06;;;7.41;100.00
10658;BME280;5377;43.276;26.930;2023-03-16T03:57:35;98198.56;;;7.47;100.00
10658;BME280;5377;43.276;26.930;2023-03-16T04:00:03;98195.47;;;7.57;100.00
10658;BME280;5377;43.276;26.930;2023-03-16T04:02:33;98200.41;;;7.46;100.00
10658;BME280;5377;43.276;26.930;2023-03-16T04:05:00;98210.63;;;7.56;100.00
10658;BME280;5377;43.276;26.930;2023-03-16T04:07:27;98194.03;;;7.61;100.00
10658;BME280;5377;43.276;26.930;2023-03-16T04:09:54;98210.25;;;7.66;100.00
10658;BME280;5377;43.276;26.930;2023-03-16T04:12:21;98203.66;;;7.75;100.00
10658;BME280;5377;43.276;26.930;2023-03-16T04:14:49;98198.75;;;7.72;100.00
10658;BME280;5377;43.276;26.930;2023-03-16T04:17:16;98193.59;;;7.77;100.00
10658;BME280;5377;43.276;26.930;2023-03-16T04:19:43;98191.56;;;7.79;100.00
10658;BME280;5377;43.276;26.930;2023-03-16T04:22:10;98190.31;;;7.88;100.00
10658;BME280;5377;43.276;26.930;2023-03-16T04:24:37;98192.53;;;7.91;100.00
10658;BME280;5377;43.276;26.930;2023-03-16T04:27:04;98196.59;;;8.13;100.00
10658;BME280;5377;43.276;26.930;2023-03-16T04:29:31;98188.19;;;8.17;100.00
10658;BME280;5377;43.276;26.930;2023-03-16T04:31:59;98198.66;;;8.11;100.00
10658;BME280;5377;43.276;26.930;2023-03-16T04:34:26;98205.63;;;8.12;100.00
10658;BME280;5377;43.276;26.930;2023-03-16T04:36:53;98204.84;;;8.05;100.00
10658;BME280;5377;43.276;26.930;2023-03-16T04:39:20;98210.16;;;8.05;100.00
10658;BME280;5377;43.276;26.930;2023-03-16T04:41:47;98217.56;;;8.03;100.00
10658;BME280;5377;43.276;26.930;2023-03-16T04:44:14;98195.88;;;7.73;100.00
10658;BME280;5377;43.276;26.930;2023-03-16T04:46:41;98224.72;;;7.96;100.00
10658;BME280;5377;43.276;26.930;2023-03-16T04:49:09;98217.78;;;7.89;100.00
10658;BME280;5377;43.276;26.930;2023-03-16T04:51:36;98202.63;;;7.76;100.00
10658;BME280;5377;43.276;26.930;2023-03-16T04:54:05;98229.88;;;7.85;100.00
10658;BME280;5377;43.276;26.930;2023-03-16T04:56:32;98230.28;;;7.88;100.00
10658;BME280;5377;43.276;26.930;2023-03-16T04:58:59;98239.94;;;7.89;100.00
10658;BME280;5377;43.276;26.930;2023-03-16T05:01:25;98239.31;;;7.87;100.00
10658;BME280;5377;43.276;26.930;2023-03-16T05:03:52;98256.94;;;7.88;100.00
10658;BME280;5377;43.276;26.930;2023-03-16T05:06:20;98259.41;;;8.03;100.00
10658;BME280;5377;43.276;26.930;2023-03-16T05:08:47;98267.59;;;8.08;100.00
10658;BME280;5377;43.276;26.930;2023-03-16T05:11:14;98272.94;;;8.01;100.00
10658;BME280;5377;43.276;26.930;2023-03-16T05:13:40;98265.56;;;8.03;100.00
10658;BME280;5377;43.276;26.930;2023-03-16T05:16:07;98270.88;;;8.10;100.00
10658;BME280;5377;43.276;26.930;2023-03-16T05:18:34;98283.19;;;8.04;100.00
10658;BME280;5377;43.276;26.930;2023-03-16T05:21:01;98290.97;;;8.12;100.00
10658;BME280;5377;43.276;26.930;2023-03-16T05:23:29;98294.03;;;8.23;100.00
10658;BME280;5377;43.276;26.930;2023-03-16T05:25:55;98285.63;;;8.39;100.00
10658;BME280;5377;43.276;26.930;2023-03-16T05:28:25;98291.16;;;8.44;100.00
10658;BME280;5377;43.276;26.930;2023-03-16T05:30:52;98296.47;;;8.51;100.00
10658;BME280;5377;43.276;26.930;2023-03-16T05:33:20;98296.47;;;8.44;100.00
10658;BME280;5377;43.276;26.930;2023-03-16T05:35:47;98300.78;;;8.45;100.00
10658;BME280;5377;43.276;26.930;2023-03-16T05:38:15;98304.50;;;8.44;100.00
10658;BME280;5377;43.276;26.930;2023-03-16T05:40:44;98296.69;;;8.42;100.00
10658;BME280;5377;43.276;26.930;2023-03-16T05:43:17;98301.81;;;8.44;100.00
10658;BME280;5377;43.276;26.930;2023-03-16T05:45:44;98307.97;;;8.44;100.00
10658;BME280;5377;43.276;26.930;2023-03-16T05:48:11;98321.06;;;8.59;100.00
10658;BME280;5377;43.276;26.930;2023-03-16T05:50:39;98315.13;;;8.57;100.00
10658;BME280;5377;43.276;26.930;2023-03-16T05:53:06;98327.03;;;8.55;100.00
10658;BME280;5377;43.276;26.930;2023-03-16T05:55:33;98328.88;;;8.54;100.00
10658;BME280;5377;43.276;26.930;2023-03-16T05:58:01;98329.91;;;8.53;100.00
10658;BME280;5377;43.276;26.930;2023-03-16T06:00:28;98330.34;;;8.43;100.00
10658;BME280;5377;43.276;26.930;2023-03-16T06:02:55;98337.34;;;8.44;100.00
10658;BME280;5377;43.276;26.930;2023-03-16T06:05:21;98338.38;;;8.37;100.00
10658;BME280;5377;43.276;26.930;2023-03-16T06:07:49;98344.69;;;8.29;100.00
10658;BME280;5377;43.276;26.930;2023-03-16T06:10:17;98348.66;;;8.33;100.00
10658;BME280;5377;43.276;26.930;2023-03-16T06:12:44;98351.09;;;8.41;100.00
10658;BME280;5377;43.276;26.930;2023-03-16T06:15:12;98359.31;;;8.40;100.00
10658;BME280;5377;43.276;26.930;2023-03-16T06:17:39;98363.16;;;8.31;100.00
10658;BME280;5377;43.276;26.930;2023-03-16T06:20:08;98362.34;;;8.30;100.00
10658;BME280;5377;43.276;26.930;2023-03-16T06:22:36;98372.19;;;8.30;100.00
10658;BME280;5377;43.276;26.930;2023-03-16T06:25:04;98335.31;;;8.00;100.00
10658;BME280;5377;43.276;26.930;2023-03-16T06:27:31;98381.00;;;8.30;100.00
10658;BME280;5377;43.276;26.930;2023-03-16T06:29:58;98384.91;;;8.28;100.00
10658;BME280;5377;43.276;26.930;2023-03-16T06:32:27;98388.00;;;8.25;100.00
10658;BME280;5377;43.276;26.930;2023-03-16T06:34:54;98388.81;;;8.25;100.00
10658;BME280;5377;43.276;26.930;2023-03-16T06:37:23;98388.22;;;8.10;100.00
10658;BME280;5377;43.276;26.930;2023-03-16T06:39:50;98391.91;;;8.16;100.00
10658;BME280;5377;43.276;26.930;2023-03-16T06:42:18;98393.97;;;8.20;100.00
10658;BME280;5377;43.276;26.930;2023-03-16T06:44:44;98405.44;;;8.14;100.00
10658;BME280;5377;43.276;26.930;2023-03-16T06:47:11;98415.69;;;8.24;100.00
10658;BME280;5377;43.276;26.930;2023-03-16T06:49:40;98405.50;;;8.34;100.00
10658;BME280;5377;43.276;26.930;2023-03-16T06:52:07;98409.53;;;8.30;100.00
10658;BME280;5377;43.276;26.930;2023-03-16T06:54:34;98406.25;;;8.28;100.00
10658;BME280;5377;43.276;26.930;2023-03-16T06:57:02;98412.47;;;8.35;100.00
10658;BME280;5377;43.276;26.930;2023-03-16T06:59:29;98413.22;;;8.29;100.00
10658;BME280;5377;43.276;26.930;2023-03-16T07:01:56;98416.13;;;8.21;100.00
10658;BME280;5377;43.276;26.930;2023-03-16T07:04:23;98413.84;;;8.18;100.00
10658;BME280;5377;43.276;26.930;2023-03-16T07:06:51;98415.91;;;8.29;100.00
10658;BME280;5377;43.276;26.930;2023-03-16T07:09:17;98368.09;;;7.88;100.00
10658;BME280;5377;43.276;26.930;2023-03-16T07:11:46;98422.25;;;8.28;100.00
10658;BME280;5377;43.276;26.930;2023-03-16T07:14:13;98418.38;;;8.24;100.00
10658;BME280;5377;43.276;26.930;2023-03-16T07:16:39;98418.97;;;8.26;100.00
10658;BME280;5377;43.276;26.930;2023-03-16T07:19:06;98422.69;;;8.18;100.00
10658;BME280;5377;43.276;26.930;2023-03-16T07:21:33;98430.88;;;8.23;100.00
10658;BME280;5377;43.276;26.930;2023-03-16T07:24:06;98429.88;;;8.11;100.00
10658;BME280;5377;43.276;26.930;2023-03-16T07:26:34;98424.75;;;8.09;100.00
10658;BME280;5377;43.276;26.930;2023-03-16T07:29:00;98431.50;;;8.05;100.00
10658;BME280;5377;43.276;26.930;2023-03-16T07:31:29;98446.28;;;8.01;100.00
10658;BME280;5377;43.276;26.930;2023-03-16T07:33:57;98439.28;;;8.00;100.00
10658;BME280;5377;43.276;26.930;2023-03-16T07:36:24;98442.78;;;8.01;100.00
10658;BME280;5377;43.276;26.930;2023-03-16T07:38:51;98458.94;;;7.93;100.00
10658;BME280;5377;43.276;26.930;2023-03-16T07:41:19;98456.94;;;8.01;100.00
10658;BME280;5377;43.276;26.930;2023-03-16T07:43:46;98458.16;;;7.99;100.00
10658;BME280;5377;43.276;26.930;2023-03-16T07:46:13;98463.47;;;7.92;100.00
10658;BME280;5377;43.276;26.930;2023-03-16T07:48:40;98468.97;;;7.77;100.00
10658;BME280;5377;43.276;26.930;2023-03-16T07:51:08;98474.28;;;7.64;100.00
10658;BME280;5377;43.276;26.930;2023-03-16T07:53:34;98477.34;;;7.68;100.00
10658;BME280;5377;43.276;26.930;2023-03-16T07:56:01;98485.25;;;7.48;100.00
10658;BME280;5377;43.276;26.930;2023-03-16T07:58:29;98489.53;;;7.42;100.00
10658;BME280;5377;43.276;26.930;2023-03-16T08:00:57;98489.09;;;7.32;100.00
10658;BME280;5377;43.276;26.930;2023-03-16T08:03:24;98490.13;;;7.31;100.00
10658;BME280;5377;43.276;26.930;2023-03-16T08:05:51;98491.59;;;7.40;100.00
10658;BME280;5377;43.276;26.930;2023-03-16T08:08:19;98495.38;;;7.25;100.00
10658;BME280;5377;43.276;26.930;2023-03-16T08:10:47;98502.13;;;7.20;100.00
10658;BME280;5377;43.276;26.930;2023-03-16T08:13:14;98501.13;;;7.28;100.00
10658;BME280;5377;43.276;26.930;2023-03-16T08:15:45;98506.41;;;7.15;100.00
10658;BME280;5377;43.276;26.930;2023-03-16T08:18:11;98515.09;;;7.30;100.00
10658;BME280;5377;43.276;26.930;2023-03-16T08:20:39;98522.94;;;7.38;100.00
10658;BME280;5377;43.276;26.930;2023-03-16T08:23:06;98521.47;;;7.29;100.00
10658;BME280;5377;43.276;26.930;2023-03-16T08:25:33;98519.72;;;7.15;100.00
10658;BME280;5377;43.276;26.930;2023-03-16T08:27:59;98522.56;;;7.13;100.00
10658;BME280;5377;43.276;26.930;2023-03-16T08:30:26;98531.38;;;7.14;100.00
10658;BME280;5377;43.276;26.930;2023-03-16T08:32:56;98531.38;;;7.14;100.00
10658;BME280;5377;43.276;26.930;2023-03-16T08:35:23;98529.13;;;7.11;100.00
10658;BME280;5377;43.276;26.930;2023-03-16T08:37:50;98539.53;;;7.06;100.00
10658;BME280;5377;43.276;26.930;2023-03-16T08:40:17;98541.22;;;7.13;100.00
10658;BME280;5377;43.276;26.930;2023-03-16T08:42:47;98545.69;;;7.06;100.00
10658;BME280;5377;43.276;26.930;2023-03-16T08:45:14;98545.56;;;6.93;100.00
10658;BME280;5377;43.276;26.930;2023-03-16T08:47:42;98558.06;;;6.93;100.00
10658;BME280;5377;43.276;26.930;2023-03-16T08:50:11;98555.94;;;6.81;100.00
10658;BME280;5377;43.276;26.930;2023-03-16T08:52:38;98564.78;;;6.88;100.00
10658;BME280;5377;43.276;26.930;2023-03-16T08:55:08;98566.56;;;6.81;100.00
10658;BME280;5377;43.276;26.930;2023-03-16T08:57:35;98564.78;;;6.88;100.00
10658;BME280;5377;43.276;26.930;2023-03-16T09:00:04;98568.91;;;6.91;100.00
10658;BME280;5377;43.276;26.930;2023-03-16T09:02:37;98574.22;;;6.91;100.00
10658;BME280;5377;43.276;26.930;2023-03-16T09:05:06;98580.75;;;6.88;100.00
10658;BME280;5377;43.276;26.930;2023-03-16T09:07:35;98573.94;;;6.79;100.00
10658;BME280;5377;43.276;26.930;2023-03-16T09:10:02;98577.56;;;6.72;100.00
10658;BME280;5377;43.276;26.930;2023-03-16T09:12:31;98590.44;;;6.68;100.00
10658;BME280;5377;43.276;26.930;2023-03-16T09:15:00;98587.97;;;6.67;100.00
10658;BME280;5377;43.276;26.930;2023-03-16T09:17:27;98584.72;;;6.71;100.00
10658;BME280;5377;43.276;26.930;2023-03-16T09:19:54;98587.97;;;6.67;100.00
10658;BME280;5377;43.276;26.930;2023-03-16T09:22:22;98579.63;;;6.55;100.00
10658;BME280;5377;43.276;26.930;2023-03-16T09:24:50;98581.63;;;6.68;100.00
10658;BME280;5377;43.276;26.930;2023-03-16T09:27:17;98588.16;;;6.65;100.00
10658;BME280;5377;43.276;26.930;2023-03-16T09:29:45;98600.28;;;6.53;100.00
10658;BME280;5377;43.276;26.930;2023-03-16T09:32:12;98603.88;;;6.60;100.00
10658;BME280;5377;43.276;26.930;2023-03-16T09:34:39;98595.06;;;6.60;100.00
10658;BME280;5377;43.276;26.930;2023-03-16T09:37:06;98598.78;;;6.65;100.00
10658;BME280;5377;43.276;26.930;2023-03-16T09:39:34;98598.41;;;6.68;100.00
10658;BME280;5377;43.276;26.930;2023-03-16T09:42:11;98608.03;;;6.69;100.00
10658;BME280;5377;43.276;26.930;2023-03-16T09:44:46;98614.84;;;6.57;100.00
10658;BME280;5377;43.276;26.930;2023-03-16T09:47:14;98612.59;;;6.75;100.00
10658;BME280;5377;43.276;26.930;2023-03-16T09:49:45;98626.81;;;6.61;100.00
10658;BME280;5377;43.276;26.930;2023-03-16T09:52:21;98630.16;;;6.70;100.00
10658;BME280;5377;43.276;26.930;2023-03-16T09:54:55;98628.13;;;6.72;100.00
10658;BME280;5377;43.276;26.930;2023-03-16T09:57:29;98629.13;;;6.71;100.00
10658;BME280;5377;43.276;26.930;2023-03-16T10:00:13;98628.31;;;6.70;100.00
10658;BME280;5377;43.276;26.930;2023-03-16T10:02:57;98633.38;;;6.65;100.00
10658;BME280;5377;43.276;26.930;2023-03-16T10:05:26;98635.03;;;6.66;100.00
10658;BME280;5377;43.276;26.930;2023-03-16T10:08:04;98633.00;;;6.68;100.00
10658;BME280;5377;43.276;26.930;2023-03-16T10:10:48;98648.09;;;6.61;100.00
10658;BME280;5377;43.276;26.930;2023-03-16T10:13:29;98642.06;;;6.74;100.00
10658;BME280;5377;43.276;26.930;2023-03-16T10:16:03;98640.22;;;6.74;100.00
10658;BME280;5377;43.276;26.930;2023-03-16T10:18:37;98642.63;;;6.69;100.00
10658;BME280;5377;43.276;26.930;2023-03-16T10:21:11;98642.66;;;6.54;100.00
10658;BME280;5377;43.276;26.930;2023-03-16T10:23:39;98652.66;;;6.67;100.00
10658;BME280;5377;43.276;26.930;2023-03-16T10:26:12;98639.09;;;6.62;100.00
10658;BME280;5377;43.276;26.930;2023-03-16T10:28:40;98637.88;;;6.65;100.00
10658;BME280;5377;43.276;26.930;2023-03-16T10:31:10;98644.41;;;6.62;100.00
10658;BME280;5377;43.276;26.930;2023-03-16T10:33:38;98642.84;;;6.53;100.00
10658;BME280;5377;43.276;26.930;2023-03-16T10:36:13;98641.84;;;6.54;100.00
10658;BME280;5377;43.276;26.930;2023-03-16T10:38:43;98643.50;;;6.55;100.00
10658;BME280;5377;43.276;26.930;2023-03-16T10:41:21;98645.66;;;6.45;100.00
10658;BME280;5377;43.276;26.930;2023-03-16T10:43:53;98641.66;;;6.34;100.00
10658;BME280;5377;43.276;26.930;2023-03-16T10:46:22;98646.06;;;6.27;100.00
10658;BME280;5377;43.276;26.930;2023-03-16T10:48:51;98648.75;;;6.12;100.00
10658;BME280;5377;43.276;26.930;2023-03-16T10:51:23;98663.53;;;6.00;100.00
10658;BME280;5377;43.276;26.930;2023-03-16T10:53:51;98648.66;;;6.06;100.00
10658;BME280;5377;43.276;26.930;2023-03-16T10:56:21;98659.38;;;6.12;100.00
10658;BME280;5377;43.276;26.930;2023-03-16T10:58:48;98654.69;;;6.14;100.00
10658;BME280;5377;43.276;26.930;2023-03-16T11:01:20;98646.34;;;6.17;100.00
10658;BME280;5377;43.276;26.930;2023-03-16T11:03:49;98650.47;;;6.20;100.00
10658;BME280;5377;43.276;26.930;2023-03-16T11:06:21;98655.06;;;6.26;100.00
10658;BME280;5377;43.276;26.930;2023-03-16T11:08:50;98656.97;;;6.17;100.00
10658;BME280;5377;43.276;26.930;2023-03-16T11:11:24;98650.91;;;6.23;100.00
10658;BME280;5377;43.276;26.930;2023-03-16T11:13:56;98655.53;;;6.15;100.00
10658;BME280;5377;43.276;26.930;2023-03-16T11:16:30;98651.09;;;6.22;100.00
10658;BME280;5377;43.276;26.930;2023-03-16T11:19:08;98659.38;;;6.12;100.00
10658;BME280;5377;43.276;26.930;2023-03-16T11:21:42;98668.56;;;6.10;100.00
10658;BME280;5377;43.276;26.930;2023-03-16T11:24:18;98659.66;;;6.03;100.00
10658;BME280;5377;43.276;26.930;2023-03-16T11:26:52;98664.44;;;6.07;100.00
10658;BME280;5377;43.276;26.930;2023-03-16T11:29:23;98654.28;;;5.96;100.00
10658;BME280;5377;43.276;26.930;2023-03-16T11:31:56;98663.03;;;6.11;100.00
10658;BME280;5377;43.276;26.930;2023-03-16T11:34:27;98662.59;;;6.08;100.00
10658;BME280;5377;43.276;26.930;2023-03-16T11:36:56;98660.31;;;6.05;100.00
10658;BME280;5377;43.276;26.930;2023-03-16T11:39:30;98665.69;;;6.11;100.00
10658;BME280;5377;43.276;26.930;2023-03-16T11:42:17;98656.47;;;6.07;100.00
10658;BME280;5377;43.276;26.930;2023-03-16T11:44:53;98670.38;;;6.09;100.00
10658;BME280;5377;43.276;26.930;2023-03-16T11:47:39;98670.88;;;5.98;100.00
10658;BME280;5377;43.276;26.930;2023-03-16T11:50:15;98668.38;;;6.11;100.00
10658;BME280;5377;43.276;26.930;2023-03-16T11:52:49;98676.44;;;6.03;100.00
10658;BME280;5377;43.276;26.930;2023-03-16T11:55:31;98678.47;;;6.01;100.00
10658;BME280;5377;43.276;26.930;2023-03-16T11:58:09;98690.97;;;5.78;100.00
10658;BME280;5377;43.276;26.930;2023-03-16T12:00:50;98679.06;;;5.74;100.00
10658;BME280;5377;43.276;26.930;2023-03-16T12:06:33;98692.72;;;5.85;100.00
10658;BME280;5377;43.276;26.930;2023-03-16T12:11:59;98703.78;;;5.97;100.00
10658;BME280;5377;43.276;26.930;2023-03-16T12:14:33;98709.09;;;5.97;100.00
10658;BME280;5377;43.276;26.930;2023-03-16T12:17:05;98701.56;;;6.01;100.00
10658;BME280;5377;43.276;26.930;2023-03-16T12:19:40;98739.06;;;6.06;100.00
10658;BME280;5377;43.276;26.930;2023-03-16T12:22:14;98712.19;;;6.15;100.00
10658;BME280;5377;43.276;26.930;2023-03-16T12:24:45;98713.19;;;6.14;100.00
10658;BME280;5377;43.276;26.930;2023-03-16T12:27:14;98707.59;;;6.09;100.00
10658;BME280;5377;43.276;26.930;2023-03-16T12:29:50;98717.59;;;6.07;100.00
10658;BME280;5377;43.276;26.930;2023-03-16T12:32:28;98717.78;;;6.06;100.00
10658;BME280;5377;43.276;26.930;2023-03-16T12:35:08;98720.63;;;6.04;100.00
10658;BME280;5377;43.276;26.930;2023-03-16T12:37:44;98727.22;;;6.08;100.00
10658;BME280;5377;43.276;26.930;2023-03-16T12:40:25;98732.16;;;6.11;100.00
10658;BME280;5377;43.276;26.930;2023-03-16T12:43:23;98732.53;;;6.08;100.00
10658;BME280;5377;43.276;26.930;2023-03-16T12:45:59;98729.16;;;6.00;100.00
10658;BME280;5377;43.276;26.930;2023-03-16T12:48:32;98743.16;;;6.08;100.00
10658;BME280;5377;43.276;26.930;2023-03-16T12:51:04;98746.47;;;6.10;100.00
10658;BME280;5377;43.276;26.930;2023-03-16T12:53:45;98749.22;;;6.17;100.00
10658;BME280;5377;43.276;26.930;2023-03-16T12:56:26;98744.34;;;6.20;100.00
10658;BME280;5377;43.276;26.930;2023-03-16T12:58:55;98752.69;;;6.17;100.00
10658;BME280;5377;43.276;26.930;2023-03-16T13:01:25;98751.31;;;6.21;100.00
10658;BME280;5377;43.276;26.930;2023-03-16T13:03:59;98748.13;;;6.11;100.00
10658;BME280;5377;43.276;26.930;2023-03-16T13:06:32;98761.69;;;6.16;100.00
10658;BME280;5377;43.276;26.930;2023-03-16T13:09:03;98766.38;;;6.14;100.00
10658;BME280;5377;43.276;26.930;2023-03-16T13:11:40;98767.38;;;6.13;100.00
10658;BME280;5377;43.276;26.930;2023-03-16T13:14:15;98762.06;;;6.13;100.00
10658;BME280;5377;43.276;26.930;2023-03-16T13:16:42;98776.25;;;6.20;100.00
10658;BME280;5377;43.276;26.930;2023-03-16T13:19:26;98781.69;;;6.12;100.00
10658;BME280;5377;43.276;26.930;2023-03-16T13:22:04;98778.94;;;6.06;100.00